sensor_id;sensor_type;location;lat;lon;timestamp;temperature;humidity
3312;DHT22;1668;49.648;8.570;2024-01-16T00:00:42;-0.60;99.90
3312;DHT22;1668;49.648;8.570;2024-01-16T00:03:09;-0.60;99.90
3312;DHT22;1668;49.648;8.570;2024-01-16T00:05:37;-0.60;99.90
3312;DHT22;1668;49.648;8.570;2024-01-16T00:08:04;-0.60;99.90
3312;DHT22;1668;49.648;8.570;2024-01-16T00:10:30;-0.70;99.90
3312;DHT22;1668;49.648;8.570;2024-01-16T00:12:57;-0.70;99.90
3312;DHT22;1668;49.648;8.570;2024-01-16T00:15:24;-0.70;99.90
3312;DHT22;1668;49.648;8.570;2024-01-16T00:17:51;-0.70;1.00
3312;DHT22;1668;49.648;8.570;2024-01-16T00:20:19;-0.70;1.00
3312;DHT22;1668;49.648;8.570;2024-01-16T00:22:47;-0.70;1.00
3312;DHT22;1668;49.648;8.570;2024-01-16T00:25:14;-0.80;1.00
3312;DHT22;1668;49.648;8.570;2024-01-16T00:27:41;-0.80;1.00
3312;DHT22;1668;49.648;8.570;2024-01-16T00:30:09;-0.80;1.00
3312;DHT22;1668;49.648;8.570;2024-01-16T00:32:36;-0.80;1.00
3312;DHT22;1668;49.648;8.570;2024-01-16T00:35:03;-0.80;1.00
3312;DHT22;1668;49.648;8.570;2024-01-16T00:37:30;-0.80;1.00
3312;DHT22;1668;49.648;8.570;2024-01-16T00:39:58;-0.90;1.00
3312;DHT22;1668;49.648;8.570;2024-01-16T00:42:25;-0.90;1.00
3312;DHT22;1668;49.648;8.570;2024-01-16T00:44:52;-0.90;1.00
3312;DHT22;1668;49.648;8.570;2024-01-16T00:47:19;-0.90;1.00
3312;DHT22;1668;49.648;8.570;2024-01-16T00:49:46;-0.90;1.00
3312;DHT22;1668;49.648;8.570;2024-01-16T00:52:13;-0.90;1.00
3312;DHT22;1668;49.648;8.570;2024-01-16T00:54:39;-0.90;1.00
3312;DHT22;1668;49.648;8.570;2024-01-16T00:57:08;-0.90;1.00
3312;DHT22;1668;49.648;8.570;2024-01-16T00:59:36;-0.90;1.00
3312;DHT22;1668;49.648;8.570;2024-01-16T01:02:03;-0.90;1.00
3312;DHT22;1668;49.648;8.570;2024-01-16T01:04:32;-0.90;1.00
3312;DHT22;1668;49.648;8.570;2024-01-16T01:06:59;-0.90;1.00
3312;DHT22;1668;49.648;8.570;2024-01-16T01:09:25;-0.90;1.00
3312;DHT22;1668;49.648;8.570;2024-01-16T01:11:52;-0.90;1.00
3312;DHT22;1668;49.648;8.570;2024-01-16T01:14:20;-0.90;1.00
3312;DHT22;1668;49.648;8.570;2024-01-16T01:16:47;-0.90;1.00
3312;DHT22;1668;49.648;8.570;2024-01-16T01:19:14;-1.00;1.00
3312;DHT22;1668;49.648;8.570;2024-01-16T01:21:41;-1.00;1.00
3312;DHT22;1668;49.648;8.570;2024-01-16T01:24:07;-1.00;1.00
3312;DHT22;1668;49.648;8.570;2024-01-16T01:26:34;-1.00;1.00
3312;DHT22;1668;49.648;8.570;2024-01-16T01:29:01;-1.00;3.00
3312;DHT22;1668;49.648;8.570;2024-01-16T01:31:29;-1.10;1.00
3312;DHT22;1668;49.648;8.570;2024-01-16T01:33:56;-1.10;1.00
3312;DHT22;1668;49.648;8.570;2024-01-16T01:36:23;-1.20;21.80
3312;DHT22;1668;49.648;8.570;2024-01-16T01:38:50;-1.20;65.30
3312;DHT22;1668;49.648;8.570;2024-01-16T01:41:17;-1.20;99.90
3312;DHT22;1668;49.648;8.570;2024-01-16T01:43:44;-1.30;99.90
3312;DHT22;1668;49.648;8.570;2024-01-16T01:46:14;-1.20;99.90
3312;DHT22;1668;49.648;8.570;2024-01-16T01:48:46;-1.30;99.90
3312;DHT22;1668;49.648;8.570;2024-01-16T01:51:14;-1.40;99.90
3312;DHT22;1668;49.648;8.570;2024-01-16T01:53:42;-1.40;99.90
3312;DHT22;1668;49.648;8.570;2024-01-16T01:56:13;-1.40;99.90
3312;DHT22;1668;49.648;8.570;2024-01-16T01:58:43;-1.40;99.90
3312;DHT22;1668;49.648;8.570;2024-01-16T02:01:11;-1.40;99.90
3312;DHT22;1668;49.648;8.570;2024-01-16T02:03:41;-1.40;99.90
3312;DHT22;1668;49.648;8.570;2024-01-16T02:06:10;-1.50;99.90
3312;DHT22;1668;49.648;8.570;2024-01-16T02:08:37;-1.50;99.90
3312;DHT22;1668;49.648;8.570;2024-01-16T02:11:04;-1.50;99.90
3312;DHT22;1668;49.648;8.570;2024-01-16T02:13:31;-1.50;99.90
3312;DHT22;1668;49.648;8.570;2024-01-16T02:15:58;-1.40;99.90
3312;DHT22;1668;49.648;8.570;2024-01-16T02:18:25;-1.50;99.90
3312;DHT22;1668;49.648;8.570;2024-01-16T02:20:51;-1.50;99.90
3312;DHT22;1668;49.648;8.570;2024-01-16T02:23:25;-1.50;99.90
3312;DHT22;1668;49.648;8.570;2024-01-16T02:25:53;-1.50;99.90
3312;DHT22;1668;49.648;8.570;2024-01-16T02:28:20;-1.50;99.90
3312;DHT22;1668;49.648;8.570;2024-01-16T02:30:47;-1.40;99.90
3312;DHT22;1668;49.648;8.570;2024-01-16T02:33:13;-1.50;99.90
3312;DHT22;1668;49.648;8.570;2024-01-16T02:35:40;-1.40;99.90
3312;DHT22;1668;49.648;8.570;2024-01-16T02:38:07;-1.40;99.90
3312;DHT22;1668;49.648;8.570;2024-01-16T02:40:35;-1.50;99.90
3312;DHT22;1668;49.648;8.570;2024-01-16T02:43:02;-1.50;99.90
3312;DHT22;1668;49.648;8.570;2024-01-16T02:45:29;-1.40;99.90
3312;DHT22;1668;49.648;8.570;2024-01-16T02:47:55;-1.40;99.90
3312;DHT22;1668;49.648;8.570;2024-01-16T02:50:22;-1.40;99.90
3312;DHT22;1668;49.648;8.570;2024-01-16T02:52:49;-1.40;99.90
3312;DHT22;1668;49.648;8.570;2024-01-16T02:55:16;-1.40;99.90
3312;DHT22;1668;49.648;8.570;2024-01-16T02:57:44;-1.40;99.90
3312;DHT22;1668;49.648;8.570;2024-01-16T03:00:12;-1.40;1.00
3312;DHT22;1668;49.648;8.570;2024-01-16T03:02:39;-1.40;1.00
3312;DHT22;1668;49.648;8.570;2024-01-16T03:05:06;-1.40;1.00
3312;DHT22;1668;49.648;8.570;2024-01-16T03:07:33;-1.40;1.00
3312;DHT22;1668;49.648;8.570;2024-01-16T03:10:00;-1.40;1.00
3312;DHT22;1668;49.648;8.570;2024-01-16T03:12:27;-1.40;1.00
3312;DHT22;1668;49.648;8.570;2024-01-16T03:14:55;-1.40;1.00
3312;DHT22;1668;49.648;8.570;2024-01-16T03:17:22;-1.40;1.00
3312;DHT22;1668;49.648;8.570;2024-01-16T03:19:49;-1.40;1.00
3312;DHT22;1668;49.648;8.570;2024-01-16T03:22:16;-1.40;1.00
3312;DHT22;1668;49.648;8.570;2024-01-16T03:24:43;-1.40;1.00
3312;DHT22;1668;49.648;8.570;2024-01-16T03:27:10;-1.40;1.00
3312;DHT22;1668;49.648;8.570;2024-01-16T03:29:37;-1.40;1.00
3312;DHT22;1668;49.648;8.570;2024-01-16T03:32:05;-1.40;1.00
3312;DHT22;1668;49.648;8.570;2024-01-16T03:34:32;-1.40;1.00
3312;DHT22;1668;49.648;8.570;2024-01-16T03:36:59;-1.40;1.00
3312;DHT22;1668;49.648;8.570;2024-01-16T03:39:26;-1.40;1.00
3312;DHT22;1668;49.648;8.570;2024-01-16T03:41:52;-1.50;1.00
3312;DHT22;1668;49.648;8.570;2024-01-16T03:44:19;-1.50;1.00
3312;DHT22;1668;49.648;8.570;2024-01-16T03:46:46;-1.50;1.00
3312;DHT22;1668;49.648;8.570;2024-01-16T03:49:14;-1.50;1.00
3312;DHT22;1668;49.648;8.570;2024-01-16T03:51:41;-1.50;1.00
3312;DHT22;1668;49.648;8.570;2024-01-16T03:54:11;-1.50;1.00
3312;DHT22;1668;49.648;8.570;2024-01-16T03:56:38;-1.50;1.00
3312;DHT22;1668;49.648;8.570;2024-01-16T03:59:05;-1.50;1.00
3312;DHT22;1668;49.648;8.570;2024-01-16T04:01:33;-1.50;1.00
3312;DHT22;1668;49.648;8.570;2024-01-16T04:04:02;-1.50;1.00
3312;DHT22;1668;49.648;8.570;2024-01-16T04:06:33;-1.50;1.00
3312;DHT22;1668;49.648;8.570;2024-01-16T04:09:00;-1.60;1.00
3312;DHT22;1668;49.648;8.570;2024-01-16T04:11:27;-1.60;1.00
3312;DHT22;1668;49.648;8.570;2024-01-16T04:13:53;-1.60;1.00
3312;DHT22;1668;49.648;8.570;2024-01-16T04:16:20;-1.60;1.00
3312;DHT22;1668;49.648;8.570;2024-01-16T04:18:47;-1.60;1.00
3312;DHT22;1668;49.648;8.570;2024-01-16T04:21:14;-1.60;1.00
3312;DHT22;1668;49.648;8.570;2024-01-16T04:23:42;-1.60;1.00
3312;DHT22;1668;49.648;8.570;2024-01-16T04:26:09;-1.50;1.00
3312;DHT22;1668;49.648;8.570;2024-01-16T04:28:36;-1.60;1.00
3312;DHT22;1668;49.648;8.570;2024-01-16T04:31:03;-1.60;1.00
3312;DHT22;1668;49.648;8.570;2024-01-16T04:33:30;-1.60;1.00
3312;DHT22;1668;49.648;8.570;2024-01-16T04:35:57;-1.60;1.00
3312;DHT22;1668;49.648;8.570;2024-01-16T04:38:24;-1.60;1.00
3312;DHT22;1668;49.648;8.570;2024-01-16T04:40:53;-1.60;1.00
3312;DHT22;1668;49.648;8.570;2024-01-16T04:43:18;-1.60;1.00
3312;DHT22;1668;49.648;8.570;2024-01-16T04:45:45;-1.70;1.00
3312;DHT22;1668;49.648;8.570;2024-01-16T04:48:12;-1.60;1.00
3312;DHT22;1668;49.648;8.570;2024-01-16T04:50:39;-1.70;1.00
3312;DHT22;1668;49.648;8.570;2024-01-16T04:53:05;-1.70;1.00
3312;DHT22;1668;49.648;8.570;2024-01-16T04:55:32;-1.70;1.00
3312;DHT22;1668;49.648;8.570;2024-01-16T04:58:00;-1.70;1.00
3312;DHT22;1668;49.648;8.570;2024-01-16T05:00:27;-1.70;1.00
3312;DHT22;1668;49.648;8.570;2024-01-16T05:02:54;-1.70;1.00
3312;DHT22;1668;49.648;8.570;2024-01-16T05:05:21;-1.70;1.00
3312;DHT22;1668;49.648;8.570;2024-01-16T05:07:48;-1.70;1.00
3312;DHT22;1668;49.648;8.570;2024-01-16T05:10:14;-1.70;1.00
3312;DHT22;1668;49.648;8.570;2024-01-16T05:12:41;-1.80;1.00
3312;DHT22;1668;49.648;8.570;2024-01-16T05:15:10;-1.70;1.00
3312;DHT22;1668;49.648;8.570;2024-01-16T05:17:38;-1.80;1.00
3312;DHT22;1668;49.648;8.570;2024-01-16T05:20:05;-1.80;1.00
3312;DHT22;1668;49.648;8.570;2024-01-16T05:22:32;-1.80;1.00
3312;DHT22;1668;49.648;8.570;2024-01-16T05:24:59;-1.80;1.00
3312;DHT22;1668;49.648;8.570;2024-01-16T05:27:26;-1.80;1.00
3312;DHT22;1668;49.648;8.570;2024-01-16T05:29:53;-1.90;1.00
3312;DHT22;1668;49.648;8.570;2024-01-16T05:32:21;-1.90;1.00
3312;DHT22;1668;49.648;8.570;2024-01-16T05:34:47;-1.90;1.00
3312;DHT22;1668;49.648;8.570;2024-01-16T05:37:13;-1.90;1.00
3312;DHT22;1668;49.648;8.570;2024-01-16T05:39:40;-1.90;1.00
3312;DHT22;1668;49.648;8.570;2024-01-16T05:42:07;-1.90;1.00
3312;DHT22;1668;49.648;8.570;2024-01-16T05:44:34;-1.90;1.00
3312;DHT22;1668;49.648;8.570;2024-01-16T05:47:00;-1.90;1.00
3312;DHT22;1668;49.648;8.570;2024-01-16T05:49:29;-1.90;1.00
3312;DHT22;1668;49.648;8.570;2024-01-16T05:51:55;-1.90;1.00
3312;DHT22;1668;49.648;8.570;2024-01-16T05:54:22;-1.90;1.00
3312;DHT22;1668;49.648;8.570;2024-01-16T05:56:49;-2.00;1.00
3312;DHT22;1668;49.648;8.570;2024-01-16T05:59:17;-2.00;1.00
3312;DHT22;1668;49.648;8.570;2024-01-16T06:01:43;-2.00;1.00
3312;DHT22;1668;49.648;8.570;2024-01-16T06:04:10;-2.00;1.00
3312;DHT22;1668;49.648;8.570;2024-01-16T06:06:38;-2.00;1.00
3312;DHT22;1668;49.648;8.570;2024-01-16T06:09:09;-2.10;1.00
3312;DHT22;1668;49.648;8.570;2024-01-16T06:11:39;-2.10;1.00
3312;DHT22;1668;49.648;8.570;2024-01-16T06:14:07;-2.10;1.00
3312;DHT22;1668;49.648;8.570;2024-01-16T06:16:34;-2.10;1.00
3312;DHT22;1668;49.648;8.570;2024-01-16T06:19:01;-2.10;1.00
3312;DHT22;1668;49.648;8.570;2024-01-16T06:21:27;-2.10;1.00
3312;DHT22;1668;49.648;8.570;2024-01-16T06:23:56;-2.10;1.00
3312;DHT22;1668;49.648;8.570;2024-01-16T06:26:23;-2.10;1.00
3312;DHT22;1668;49.648;8.570;2024-01-16T06:28:50;-2.10;1.00
3312;DHT22;1668;49.648;8.570;2024-01-16T06:31:17;-2.20;1.00
3312;DHT22;1668;49.648;8.570;2024-01-16T06:33:44;-2.20;1.00
3312;DHT22;1668;49.648;8.570;2024-01-16T06:36:11;-2.20;1.00
3312;DHT22;1668;49.648;8.570;2024-01-16T06:38:38;-2.20;1.00
3312;DHT22;1668;49.648;8.570;2024-01-16T06:41:07;-2.20;1.00
3312;DHT22;1668;49.648;8.570;2024-01-16T06:43:34;-2.20;1.00
3312;DHT22;1668;49.648;8.570;2024-01-16T06:46:01;-2.20;1.00
3312;DHT22;1668;49.648;8.570;2024-01-16T06:48:28;-2.20;1.00
3312;DHT22;1668;49.648;8.570;2024-01-16T06:50:55;-2.20;1.00
3312;DHT22;1668;49.648;8.570;2024-01-16T06:53:22;-2.20;1.00
3312;DHT22;1668;49.648;8.570;2024-01-16T06:55:49;-2.20;1.00
3312;DHT22;1668;49.648;8.570;2024-01-16T06:58:17;-2.20;1.00
3312;DHT22;1668;49.648;8.570;2024-01-16T07:00:44;-2.20;1.00
3312;DHT22;1668;49.648;8.570;2024-01-16T07:03:11;-2.20;1.00
3312;DHT22;1668;49.648;8.570;2024-01-16T07:05:38;-2.20;1.00
3312;DHT22;1668;49.648;8.570;2024-01-16T07:08:06;-2.20;1.00
3312;DHT22;1668;49.648;8.570;2024-01-16T07:10:33;-2.20;1.00
3312;DHT22;1668;49.648;8.570;2024-01-16T07:13:01;-2.20;1.00
3312;DHT22;1668;49.648;8.570;2024-01-16T07:15:29;-2.20;1.00
3312;DHT22;1668;49.648;8.570;2024-01-16T07:17:56;-2.20;1.00
3312;DHT22;1668;49.648;8.570;2024-01-16T07:20:23;-2.20;1.00
3312;DHT22;1668;49.648;8.570;2024-01-16T07:22:49;-2.20;1.00
3312;DHT22;1668;49.648;8.570;2024-01-16T07:25:17;-2.20;1.00
3312;DHT22;1668;49.648;8.570;2024-01-16T07:27:44;-2.30;1.00
3312;DHT22;1668;49.648;8.570;2024-01-16T07:30:14;-2.30;1.00
3312;DHT22;1668;49.648;8.570;2024-01-16T07:32:42;-2.30;1.00
3312;DHT22;1668;49.648;8.570;2024-01-16T07:35:08;-2.30;1.00
3312;DHT22;1668;49.648;8.570;2024-01-16T07:37:35;-2.30;1.00
3312;DHT22;1668;49.648;8.570;2024-01-16T07:40:02;-2.30;1.00
3312;DHT22;1668;49.648;8.570;2024-01-16T07:42:31;-2.20;1.00
3312;DHT22;1668;49.648;8.570;2024-01-16T07:45:00;-2.20;1.00
3312;DHT22;1668;49.648;8.570;2024-01-16T07:47:29;-2.20;1.00
3312;DHT22;1668;49.648;8.570;2024-01-16T07:49:58;-2.20;1.00
3312;DHT22;1668;49.648;8.570;2024-01-16T07:52:25;-2.20;1.00
3312;DHT22;1668;49.648;8.570;2024-01-16T07:54:52;-2.20;1.00
3312;DHT22;1668;49.648;8.570;2024-01-16T07:57:18;-2.20;1.00
3312;DHT22;1668;49.648;8.570;2024-01-16T07:59:46;-2.20;1.00
3312;DHT22;1668;49.648;8.570;2024-01-16T08:02:13;-2.20;1.00
3312;DHT22;1668;49.648;8.570;2024-01-16T08:04:39;-2.20;1.00
3312;DHT22;1668;49.648;8.570;2024-01-16T08:07:08;-2.20;1.00
3312;DHT22;1668;49.648;8.570;2024-01-16T08:09:34;-2.10;1.00
3312;DHT22;1668;49.648;8.570;2024-01-16T08:12:03;-2.10;1.00
3312;DHT22;1668;49.648;8.570;2024-01-16T08:14:31;-2.10;1.00
3312;DHT22;1668;49.648;8.570;2024-01-16T08:16:58;-2.10;1.00
3312;DHT22;1668;49.648;8.570;2024-01-16T08:19:25;-2.10;1.00
3312;DHT22;1668;49.648;8.570;2024-01-16T08:21:51;-2.10;1.00
3312;DHT22;1668;49.648;8.570;2024-01-16T08:24:20;-2.10;1.00
3312;DHT22;1668;49.648;8.570;2024-01-16T08:26:46;-2.10;1.00
3312;DHT22;1668;49.648;8.570;2024-01-16T08:29:13;-2.00;1.00
3312;DHT22;1668;49.648;8.570;2024-01-16T08:31:40;-2.00;1.00
3312;DHT22;1668;49.648;8.570;2024-01-16T08:34:07;-2.00;1.00
3312;DHT22;1668;49.648;8.570;2024-01-16T08:36:34;-1.90;1.00
3312;DHT22;1668;49.648;8.570;2024-01-16T08:39:00;-1.90;1.00
3312;DHT22;1668;49.648;8.570;2024-01-16T08:41:29;-1.90;1.00
3312;DHT22;1668;49.648;8.570;2024-01-16T08:43:56;-1.90;1.00
3312;DHT22;1668;49.648;8.570;2024-01-16T08:46:23;-1.90;1.00
3312;DHT22;1668;49.648;8.570;2024-01-16T08:48:50;-1.90;1.00
3312;DHT22;1668;49.648;8.570;2024-01-16T08:51:16;-1.80;1.00
3312;DHT22;1668;49.648;8.570;2024-01-16T08:53:43;-1.80;1.00
3312;DHT22;1668;49.648;8.570;2024-01-16T08:56:10;-1.80;1.00
3312;DHT22;1668;49.648;8.570;2024-01-16T08:58:39;-1.80;1.00
3312;DHT22;1668;49.648;8.570;2024-01-16T09:01:06;-1.70;1.00
3312;DHT22;1668;49.648;8.570;2024-01-16T09:03:33;-1.70;1.00
3312;DHT22;1668;49.648;8.570;2024-01-16T09:06:00;-1.70;1.00
3312;DHT22;1668;49.648;8.570;2024-01-16T09:08:27;-1.60;1.00
3312;DHT22;1668;49.648;8.570;2024-01-16T09:10:54;-1.60;1.00
3312;DHT22;1668;49.648;8.570;2024-01-16T09:13:21;-1.60;1.00
3312;DHT22;1668;49.648;8.570;2024-01-16T09:15:50;-1.60;1.00
3312;DHT22;1668;49.648;8.570;2024-01-16T09:18:17;-1.50;1.00
3312;DHT22;1668;49.648;8.570;2024-01-16T09:20:43;-1.50;1.00
3312;DHT22;1668;49.648;8.570;2024-01-16T09:23:10;-1.50;1.00
3312;DHT22;1668;49.648;8.570;2024-01-16T09:25:38;-1.50;1.00
3312;DHT22;1668;49.648;8.570;2024-01-16T09:28:05;-1.40;1.00
3312;DHT22;1668;49.648;8.570;2024-01-16T09:30:32;-1.40;1.00
3312;DHT22;1668;49.648;8.570;2024-01-16T09:33:00;-1.40;1.00
3312;DHT22;1668;49.648;8.570;2024-01-16T09:35:28;-1.40;1.00
3312;DHT22;1668;49.648;8.570;2024-01-16T09:37:55;-1.40;1.00
3312;DHT22;1668;49.648;8.570;2024-01-16T09:40:22;-1.40;1.00
3312;DHT22;1668;49.648;8.570;2024-01-16T09:42:49;-1.40;1.00
3312;DHT22;1668;49.648;8.570;2024-01-16T09:45:19;-1.30;1.00
3312;DHT22;1668;49.648;8.570;2024-01-16T09:47:49;-1.30;1.00
3312;DHT22;1668;49.648;8.570;2024-01-16T09:50:18;-1.30;99.90
3312;DHT22;1668;49.648;8.570;2024-01-16T09:52:45;-1.20;1.00
3312;DHT22;1668;49.648;8.570;2024-01-16T09:55:13;-1.20;99.90
3312;DHT22;1668;49.648;8.570;2024-01-16T09:57:40;-1.10;99.90
3312;DHT22;1668;49.648;8.570;2024-01-16T10:00:09;-1.10;99.90
3312;DHT22;1668;49.648;8.570;2024-01-16T10:02:38;-1.10;99.90
3312;DHT22;1668;49.648;8.570;2024-01-16T10:05:06;-1.00;99.90
3312;DHT22;1668;49.648;8.570;2024-01-16T10:07:36;-1.00;99.90
3312;DHT22;1668;49.648;8.570;2024-01-16T10:10:04;-1.00;99.90
3312;DHT22;1668;49.648;8.570;2024-01-16T10:12:31;-1.00;99.90
3312;DHT22;1668;49.648;8.570;2024-01-16T10:14:58;-0.90;18.50
3312;DHT22;1668;49.648;8.570;2024-01-16T10:17:35;-0.90;99.90
3312;DHT22;1668;49.648;8.570;2024-01-16T10:20:03;-0.90;29.30
3312;DHT22;1668;49.648;8.570;2024-01-16T10:22:30;-0.80;84.10
3312;DHT22;1668;49.648;8.570;2024-01-16T10:25:09;-0.80;1.00
3312;DHT22;1668;49.648;8.570;2024-01-16T10:27:38;-0.80;1.00
3312;DHT22;1668;49.648;8.570;2024-01-16T10:30:06;-0.80;27.30
3312;DHT22;1668;49.648;8.570;2024-01-16T10:32:35;-0.70;1.00
3312;DHT22;1668;49.648;8.570;2024-01-16T10:35:07;-0.70;1.00
3312;DHT22;1668;49.648;8.570;2024-01-16T10:37:42;-0.70;1.00
3312;DHT22;1668;49.648;8.570;2024-01-16T10:40:15;-0.60;1.00
3312;DHT22;1668;49.648;8.570;2024-01-16T10:42:42;-0.60;1.00
3312;DHT22;1668;49.648;8.570;2024-01-16T10:45:16;-0.50;1.00
3312;DHT22;1668;49.648;8.570;2024-01-16T10:47:44;-0.50;1.00
3312;DHT22;1668;49.648;8.570;2024-01-16T10:50:11;-0.40;1.00
3312;DHT22;1668;49.648;8.570;2024-01-16T10:52:43;-0.40;1.00
3312;DHT22;1668;49.648;8.570;2024-01-16T10:55:14;-0.30;99.90
3312;DHT22;1668;49.648;8.570;2024-01-16T10:57:42;-0.30;99.90
3312;DHT22;1668;49.648;8.570;2024-01-16T11:00:11;-0.30;99.90
3312;DHT22;1668;49.648;8.570;2024-01-16T11:02:51;-0.30;99.90
3312;DHT22;1668;49.648;8.570;2024-01-16T11:05:20;-0.30;99.90
3312;DHT22;1668;49.648;8.570;2024-01-16T11:07:49;-0.20;99.90
3312;DHT22;1668;49.648;8.570;2024-01-16T11:10:18;-0.20;99.90
3312;DHT22;1668;49.648;8.570;2024-01-16T11:12:45;-0.20;67.80
3312;DHT22;1668;49.648;8.570;2024-01-16T11:15:14;-0.20;99.90
3312;DHT22;1668;49.648;8.570;2024-01-16T11:17:44;-0.20;99.90
3312;DHT22;1668;49.648;8.570;2024-01-16T11:20:11;-0.10;99.90
3312;DHT22;1668;49.648;8.570;2024-01-16T11:22:41;-0.20;90.00
3312;DHT22;1668;49.648;8.570;2024-01-16T11:25:09;-0.20;23.50
3312;DHT22;1668;49.648;8.570;2024-01-16T11:27:38;-0.20;1.00
3312;DHT22;1668;49.648;8.570;2024-01-16T11:30:06;-0.10;1.00
3312;DHT22;1668;49.648;8.570;2024-01-16T11:32:34;-0.10;1.00
3312;DHT22;1668;49.648;8.570;2024-01-16T11:35:02;-0.10;12.10
3312;DHT22;1668;49.648;8.570;2024-01-16T11:37:30;0.00;1.00
3312;DHT22;1668;49.648;8.570;2024-01-16T11:40:20;0.00;1.00
3312;DHT22;1668;49.648;8.570;2024-01-16T11:42:49;0.00;1.00
3312;DHT22;1668;49.648;8.570;2024-01-16T11:45:52;0.10;1.00
3312;DHT22;1668;49.648;8.570;2024-01-16T11:48:19;0.10;1.00
3312;DHT22;1668;49.648;8.570;2024-01-16T11:50:46;0.10;99.90
3312;DHT22;1668;49.648;8.570;2024-01-16T11:53:32;0.10;1.00
3312;DHT22;1668;49.648;8.570;2024-01-16T11:56:19;0.10;99.90
3312;DHT22;1668;49.648;8.570;2024-01-16T11:59:01;0.10;99.90
3312;DHT22;1668;49.648;8.570;2024-01-16T12:01:31;0.10;99.90
3312;DHT22;1668;49.648;8.570;2024-01-16T12:04:02;0.10;99.90
3312;DHT22;1668;49.648;8.570;2024-01-16T12:06:30;0.10;99.90
3312;DHT22;1668;49.648;8.570;2024-01-16T12:09:11;0.20;99.90
3312;DHT22;1668;49.648;8.570;2024-01-16T12:11:39;0.40;64.60
3312;DHT22;1668;49.648;8.570;2024-01-16T12:14:07;0.40;1.00
3312;DHT22;1668;49.648;8.570;2024-01-16T12:16:34;0.40;1.00
3312;DHT22;1668;49.648;8.570;2024-01-16T12:19:05;0.50;1.00
3312;DHT22;1668;49.648;8.570;2024-01-16T12:21:34;0.60;99.90
3312;DHT22;1668;49.648;8.570;2024-01-16T12:24:01;0.70;1.00
3312;DHT22;1668;49.648;8.570;2024-01-16T12:26:29;0.90;37.30
3312;DHT22;1668;49.648;8.570;2024-01-16T12:28:57;1.00;1.00
3312;DHT22;1668;49.648;8.570;2024-01-16T12:31:25;1.10;99.90
3312;DHT22;1668;49.648;8.570;2024-01-16T12:33:52;1.30;99.90
3312;DHT22;1668;49.648;8.570;2024-01-16T12:36:19;1.40;1.00
3312;DHT22;1668;49.648;8.570;2024-01-16T12:38:54;1.40;1.00
3312;DHT22;1668;49.648;8.570;2024-01-16T12:41:22;1.70;1.00
3312;DHT22;1668;49.648;8.570;2024-01-16T12:43:50;1.90;1.00
3312;DHT22;1668;49.648;8.570;2024-01-16T12:46:17;1.90;1.00
3312;DHT22;1668;49.648;8.570;2024-01-16T12:48:45;2.10;1.00
3312;DHT22;1668;49.648;8.570;2024-01-16T12:51:20;2.20;1.00
3312;DHT22;1668;49.648;8.570;2024-01-16T12:53:48;2.40;1.00
3312;DHT22;1668;49.648;8.570;2024-01-16T12:56:18;2.40;99.90
3312;DHT22;1668;49.648;8.570;2024-01-16T12:58:46;2.50;99.90
3312;DHT22;1668;49.648;8.570;2024-01-16T13:01:24;2.60;31.40
3312;DHT22;1668;49.648;8.570;2024-01-16T13:03:53;2.70;1.00
3312;DHT22;1668;49.648;8.570;2024-01-16T13:06:20;2.80;1.00
3312;DHT22;1668;49.648;8.570;2024-01-16T13:08:47;2.90;1.00
3312;DHT22;1668;49.648;8.570;2024-01-16T13:11:15;2.90;99.90
3312;DHT22;1668;49.648;8.570;2024-01-16T13:13:45;3.00;99.90
3312;DHT22;1668;49.648;8.570;2024-01-16T13:16:12;3.00;99.90
3312;DHT22;1668;49.648;8.570;2024-01-16T13:18:39;3.10;99.90
3312;DHT22;1668;49.648;8.570;2024-01-16T13:21:07;3.10;99.90
3312;DHT22;1668;49.648;8.570;2024-01-16T13:23:34;3.10;99.90
3312;DHT22;1668;49.648;8.570;2024-01-16T13:26:01;3.10;99.90
3312;DHT22;1668;49.648;8.570;2024-01-16T13:28:29;3.20;99.90
3312;DHT22;1668;49.648;8.570;2024-01-16T13:30:56;3.30;99.90
3312;DHT22;1668;49.648;8.570;2024-01-16T13:33:23;3.30;99.90
3312;DHT22;1668;49.648;8.570;2024-01-16T13:35:53;3.30;99.90
3312;DHT22;1668;49.648;8.570;2024-01-16T13:38:22;3.20;99.90
3312;DHT22;1668;49.648;8.570;2024-01-16T13:40:49;3.20;99.90
3312;DHT22;1668;49.648;8.570;2024-01-16T13:43:17;3.20;99.90
3312;DHT22;1668;49.648;8.570;2024-01-16T13:45:44;3.20;99.90
3312;DHT22;1668;49.648;8.570;2024-01-16T13:48:15;3.10;99.90
3312;DHT22;1668;49.648;8.570;2024-01-16T13:50:42;2.90;99.90
3312;DHT22;1668;49.648;8.570;2024-01-16T13:53:10;2.90;99.90
3312;DHT22;1668;49.648;8.570;2024-01-16T13:55:39;2.80;99.90
3312;DHT22;1668;49.648;8.570;2024-01-16T13:58:06;2.70;99.90
3312;DHT22;1668;49.648;8.570;2024-01-16T14:00:33;2.70;99.90
3312;DHT22;1668;49.648;8.570;2024-01-16T14:03:00;2.70;84.50
3312;DHT22;1668;49.648;8.570;2024-01-16T14:05:29;2.70;99.90
3312;DHT22;1668;49.648;8.570;2024-01-16T14:07:55;2.70;99.90
3312;DHT22;1668;49.648;8.570;2024-01-16T14:10:23;2.70;99.90
3312;DHT22;1668;49.648;8.570;2024-01-16T14:12:52;2.60;99.90
3312;DHT22;1668;49.648;8.570;2024-01-16T14:15:20;2.60;99.90
3312;DHT22;1668;49.648;8.570;2024-01-16T14:17:50;2.60;99.90
3312;DHT22;1668;49.648;8.570;2024-01-16T14:20:18;2.60;99.90
3312;DHT22;1668;49.648;8.570;2024-01-16T14:22:48;2.60;99.90
3312;DHT22;1668;49.648;8.570;2024-01-16T14:25:15;2.50;99.90
3312;DHT22;1668;49.648;8.570;2024-01-16T14:27:48;2.40;99.90
3312;DHT22;1668;49.648;8.570;2024-01-16T14:30:16;2.40;99.90
3312;DHT22;1668;49.648;8.570;2024-01-16T14:32:44;2.30;99.90
3312;DHT22;1668;49.648;8.570;2024-01-16T14:35:16;2.30;99.90
3312;DHT22;1668;49.648;8.570;2024-01-16T14:37:45;2.30;99.90
3312;DHT22;1668;49.648;8.570;2024-01-16T14:40:12;2.30;99.90
3312;DHT22;1668;49.648;8.570;2024-01-16T14:42:45;2.30;99.90
3312;DHT22;1668;49.648;8.570;2024-01-16T14:45:14;2.20;99.90
3312;DHT22;1668;49.648;8.570;2024-01-16T14:47:42;2.20;99.90
3312;DHT22;1668;49.648;8.570;2024-01-16T14:50:14;2.10;99.90
3312;DHT22;1668;49.648;8.570;2024-01-16T14:52:43;2.10;99.90
3312;DHT22;1668;49.648;8.570;2024-01-16T14:55:10;2.10;99.90
3312;DHT22;1668;49.648;8.570;2024-01-16T14:57:38;2.00;99.90
3312;DHT22;1668;49.648;8.570;2024-01-16T15:00:13;2.00;99.90
3312;DHT22;1668;49.648;8.570;2024-01-16T15:02:48;2.00;99.90
3312;DHT22;1668;49.648;8.570;2024-01-16T15:05:42;1.90;99.90
3312;DHT22;1668;49.648;8.570;2024-01-16T15:08:21;1.90;99.90
3312;DHT22;1668;49.648;8.570;2024-01-16T15:10:58;1.80;99.90
3312;DHT22;1668;49.648;8.570;2024-01-16T15:13:29;1.80;99.90
3312;DHT22;1668;49.648;8.570;2024-01-16T15:16:08;1.80;99.90
3312;DHT22;1668;49.648;8.570;2024-01-16T15:18:38;1.70;99.90
3312;DHT22;1668;49.648;8.570;2024-01-16T15:21:05;1.70;99.90
3312;DHT22;1668;49.648;8.570;2024-01-16T15:23:32;1.70;99.90
3312;DHT22;1668;49.648;8.570;2024-01-16T15:25:59;1.60;99.90
3312;DHT22;1668;49.648;8.570;2024-01-16T15:28:32;1.50;99.90
3312;DHT22;1668;49.648;8.570;2024-01-16T15:31:00;1.50;99.90
3312;DHT22;1668;49.648;8.570;2024-01-16T15:33:32;1.50;99.90
3312;DHT22;1668;49.648;8.570;2024-01-16T15:36:05;1.40;99.90
3312;DHT22;1668;49.648;8.570;2024-01-16T15:38:32;1.30;1.00
3312;DHT22;1668;49.648;8.570;2024-01-16T15:40:59;1.30;1.00
3312;DHT22;1668;49.648;8.570;2024-01-16T15:43:26;1.30;1.00
3312;DHT22;1668;49.648;8.570;2024-01-16T15:45:52;1.20;1.00
3312;DHT22;1668;49.648;8.570;2024-01-16T15:48:19;1.20;1.00
3312;DHT22;1668;49.648;8.570;2024-01-16T15:50:46;1.10;1.00
3312;DHT22;1668;49.648;8.570;2024-01-16T15:53:14;1.10;1.00
3312;DHT22;1668;49.648;8.570;2024-01-16T15:55:41;1.10;1.00
3312;DHT22;1668;49.648;8.570;2024-01-16T15:58:08;1.10;1.00
3312;DHT22;1668;49.648;8.570;2024-01-16T16:00:35;1.00;1.00
3312;DHT22;1668;49.648;8.570;2024-01-16T16:03:02;1.00;1.00
3312;DHT22;1668;49.648;8.570;2024-01-16T16:05:30;0.90;1.00
3312;DHT22;1668;49.648;8.570;2024-01-16T16:07:57;0.90;1.00
3312;DHT22;1668;49.648;8.570;2024-01-16T16:10:25;0.90;1.00
3312;DHT22;1668;49.648;8.570;2024-01-16T16:12:52;0.90;1.00
3312;DHT22;1668;49.648;8.570;2024-01-16T16:15:19;0.80;1.00
3312;DHT22;1668;49.648;8.570;2024-01-16T16:17:47;0.80;1.00
3312;DHT22;1668;49.648;8.570;2024-01-16T16:20:13;0.80;1.00
3312;DHT22;1668;49.648;8.570;2024-01-16T16:22:40;0.70;1.00